createdAt,value
2024-03-13T00:02:06.190Z,7.47
2024-03-13T00:04:42.387Z,5.22
2024-03-13T00:07:12.069Z,5.85
2024-03-13T00:09:47.906Z,8.68
2024-03-13T00:12:15.273Z,6.25
2024-03-13T00:17:08.451Z,6.30
2024-03-13T00:19:34.911Z,6.72
2024-03-13T00:22:06.042Z,6.57
2024-03-13T00:24:32.662Z,6.30
2024-03-13T00:26:59.235Z,6.05
2024-03-13T00:29:28.599Z,6.07
2024-03-13T00:31:55.060Z,6.65
2024-03-13T00:34:21.649Z,5.43
2024-03-13T00:36:49.697Z,5.75
2024-03-13T00:39:16.639Z,5.43
2024-03-13T00:41:43.144Z,6.60
2024-03-13T00:44:10.518Z,7.90
2024-03-13T00:46:37.335Z,9.20
2024-03-13T00:49:04.320Z,5.13
2024-03-13T00:51:32.594Z,6.38
2024-03-13T00:54:00.408Z,5.90
2024-03-13T00:56:30.456Z,5.90
2024-03-13T00:58:57.352Z,6.30
2024-03-13T01:01:24.027Z,4.68
2024-03-13T01:03:51.199Z,6.10
2024-03-13T01:06:20.924Z,5.50
2024-03-13T01:08:47.589Z,5.10
2024-03-13T01:11:14.157Z,4.78
2024-03-13T01:13:40.749Z,7.05
2024-03-13T01:16:08.721Z,5.28
2024-03-13T01:18:35.719Z,4.97
2024-03-13T01:21:02.259Z,4.88
2024-03-13T01:23:28.866Z,4.32
2024-03-13T01:25:58.706Z,4.22
2024-03-13T01:28:25.276Z,5.15
2024-03-13T01:30:51.834Z,4.72
2024-03-13T01:33:18.304Z,5.30
2024-03-13T01:35:44.799Z,6.78
2024-03-13T01:38:11.250Z,6.30
2024-03-13T01:40:56.209Z,9.48
2024-03-13T01:43:41.188Z,7.63
2024-03-13T01:46:26.579Z,4.43
2024-03-13T01:49:11.580Z,5.50
2024-03-13T01:51:56.668Z,6.40
2024-03-13T01:54:41.735Z,8.48
2024-03-13T01:57:14.599Z,6.30
2024-03-13T02:00:10.731Z,3.83
2024-03-13T02:05:06.102Z,5.40
2024-03-13T02:07:32.797Z,5.78
2024-03-13T02:10:01.088Z,7.22
2024-03-13T02:12:28.292Z,5.93
2024-03-13T02:14:54.807Z,7.00
2024-03-13T02:17:22.433Z,7.13
2024-03-13T02:19:49.422Z,8.57
2024-03-13T02:22:15.947Z,9.88
2024-03-13T02:24:42.560Z,8.20
2024-03-13T02:27:10.224Z,7.72
2024-03-13T02:29:39.091Z,7.97
2024-03-13T02:32:06.195Z,6.80
2024-03-13T02:34:32.731Z,7.15
2024-03-13T02:36:59.973Z,5.45
2024-03-13T02:39:27.907Z,7.40
2024-03-13T02:41:54.444Z,7.78
2024-03-13T02:44:21.206Z,8.30
2024-03-13T02:46:47.723Z,8.32
2024-03-13T02:49:16.297Z,6.85
2024-03-13T02:51:45.812Z,10.25
2024-03-13T02:54:12.309Z,10.18
2024-03-13T02:56:40.025Z,6.95
2024-03-13T02:59:06.515Z,7.78
2024-03-13T03:01:33.177Z,8.63
2024-03-13T03:04:00.513Z,8.73
2024-03-13T03:06:27.101Z,12.48
2024-03-13T03:08:53.546Z,11.27
2024-03-13T03:11:20.110Z,7.07
2024-03-13T03:13:47.423Z,8.32
2024-03-13T03:16:14.316Z,9.07
2024-03-13T03:18:40.902Z,8.20
2024-03-13T03:21:09.043Z,6.03
2024-03-13T03:23:35.499Z,8.23
2024-03-13T03:26:01.958Z,7.55
2024-03-13T03:28:28.441Z,7.25
2024-03-13T03:30:57.927Z,7.60
2024-03-13T03:33:24.609Z,8.02
2024-03-13T03:35:51.088Z,7.43
2024-03-13T03:38:18.219Z,6.85
2024-03-13T03:40:44.720Z,8.88
2024-03-13T03:43:11.738Z,6.47
2024-03-13T03:45:38.598Z,6.47
2024-03-13T03:48:11.130Z,9.15
2024-03-13T03:50:39.050Z,7.15
2024-03-13T03:53:05.558Z,6.65
2024-03-13T03:55:32.089Z,5.65
2024-03-13T03:57:58.750Z,8.30
2024-03-13T04:00:25.258Z,6.13
2024-03-13T04:02:54.787Z,9.68
2024-03-13T04:05:21.652Z,7.38
2024-03-13T04:07:50.387Z,7.65
2024-03-13T04:10:17.251Z,7.35
2024-03-13T04:12:43.978Z,6.97
2024-03-13T04:15:10.561Z,4.50
2024-03-13T04:17:36.995Z,7.03
2024-03-13T04:20:04.347Z,6.97
2024-03-13T04:22:33.190Z,5.93
2024-03-13T04:24:59.803Z,6.35
2024-03-13T04:27:28.348Z,5.75
2024-03-13T04:29:54.841Z,5.90
2024-03-13T04:32:22.145Z,6.90
2024-03-13T04:34:48.882Z,5.18
2024-03-13T04:37:16.606Z,4.95
2024-03-13T04:39:43.718Z,6.50
2024-03-13T04:42:10.265Z,5.82
2024-03-13T04:44:36.733Z,4.68
2024-03-13T04:47:03.194Z,6.18
2024-03-13T04:49:29.781Z,5.25
2024-03-13T04:51:57.342Z,6.30
2024-03-13T04:54:23.944Z,9.52
2024-03-13T04:56:50.385Z,9.75
2024-03-13T04:59:17.040Z,7.90
2024-03-13T05:01:43.742Z,5.15
2024-03-13T05:04:10.213Z,8.15
2024-03-13T05:06:36.739Z,6.68
2024-03-13T05:09:03.479Z,7.15
2024-03-13T05:11:29.936Z,5.82
2024-03-13T05:13:56.437Z,10.27
2024-03-13T05:16:24.780Z,7.00
2024-03-13T05:18:51.334Z,5.95
2024-03-13T05:21:19.720Z,8.80
2024-03-13T05:23:47.123Z,6.78
2024-03-13T05:26:13.836Z,7.28
2024-03-13T05:28:40.607Z,7.30
2024-03-13T05:31:10.858Z,6.38
2024-03-13T05:33:41.537Z,6.68
2024-03-13T05:36:11.046Z,7.07
2024-03-13T05:38:37.484Z,6.78
2024-03-13T05:41:04.242Z,8.55
2024-03-13T05:43:31.106Z,5.75
2024-03-13T05:45:57.616Z,7.15
2024-03-13T05:48:24.107Z,7.53
2024-03-13T05:50:50.562Z,5.50
2024-03-13T05:53:17.000Z,5.55
2024-03-13T05:55:44.123Z,5.75
2024-03-13T05:58:10.891Z,5.68
2024-03-13T06:00:42.311Z,5.55
2024-03-13T06:03:08.838Z,4.97
2024-03-13T06:05:35.414Z,6.32
2024-03-13T06:08:01.950Z,6.22
2024-03-13T06:10:31.068Z,5.07
2024-03-13T06:12:57.899Z,4.85
2024-03-13T06:15:24.400Z,5.68
2024-03-13T06:17:50.960Z,7.35
2024-03-13T06:20:19.773Z,5.72
2024-03-13T06:22:46.879Z,6.05
2024-03-13T06:25:14.541Z,7.07
2024-03-13T06:27:41.754Z,6.10
2024-03-13T06:30:10.147Z,4.25
2024-03-13T06:32:37.018Z,6.07
2024-03-13T06:35:05.277Z,6.53
2024-03-13T06:37:33.163Z,7.35
2024-03-13T06:40:00.156Z,5.10
2024-03-13T06:42:26.945Z,7.20
2024-03-13T06:44:55.367Z,4.57
2024-03-13T06:47:22.444Z,4.65
2024-03-13T06:49:49.013Z,5.35
2024-03-13T06:52:15.740Z,7.43
2024-03-13T06:54:42.970Z,8.32
2024-03-13T06:57:13.580Z,5.38
2024-03-13T06:59:46.111Z,7.10
2024-03-13T07:02:16.326Z,7.45
2024-03-13T07:04:43.775Z,4.97
2024-03-13T07:07:11.187Z,5.70
2024-03-13T07:09:38.506Z,5.93
2024-03-13T07:12:05.636Z,5.22
2024-03-13T07:14:32.160Z,5.15
2024-03-13T07:16:59.644Z,4.32
2024-03-13T07:21:53.777Z,4.43
2024-03-13T07:24:20.508Z,4.20
2024-03-13T07:26:47.021Z,8.13
2024-03-13T07:29:13.533Z,6.07
2024-03-13T07:31:41.076Z,4.07
2024-03-13T07:34:11.011Z,5.55
2024-03-13T07:36:39.185Z,4.47
2024-03-13T07:39:11.401Z,3.65
2024-03-13T07:41:38.144Z,6.35
2024-03-13T07:44:04.596Z,3.45
2024-03-13T07:46:31.165Z,6.05
2024-03-13T07:48:57.735Z,4.53
2024-03-13T07:51:24.460Z,5.75
2024-03-13T07:53:51.127Z,6.07
2024-03-13T07:56:19.071Z,5.55
2024-03-13T07:58:45.618Z,5.45
2024-03-13T08:01:12.246Z,5.43
2024-03-13T08:03:38.824Z,6.03
2024-03-13T09:06:25.819Z,3.95
2024-03-13T09:08:52.594Z,5.97
2024-03-13T09:11:19.957Z,5.65
2024-03-13T09:13:46.789Z,6.18
2024-03-13T09:16:13.828Z,6.10
2024-03-13T09:21:07.140Z,4.07
2024-03-13T09:23:33.918Z,6.78
2024-03-13T09:28:28.591Z,6.13
2024-03-13T09:30:55.293Z,5.38
2024-03-13T09:33:21.899Z,3.65
2024-03-13T09:35:48.555Z,4.25
2024-03-13T09:38:16.415Z,4.13
2024-03-13T09:40:46.617Z,4.53
2024-03-13T09:43:18.936Z,4.88
2024-03-13T09:45:49.036Z,5.30
2024-03-13T09:48:15.767Z,4.95
2024-03-13T09:50:49.495Z,4.00
2024-03-13T09:53:21.326Z,4.38
2024-03-13T09:55:48.911Z,4.28
2024-03-13T09:58:16.584Z,5.38
2024-03-13T10:00:44.538Z,5.22
2024-03-13T10:03:25.267Z,3.70
2024-03-13T10:06:21.647Z,5.38
2024-03-13T10:08:48.952Z,5.40
2024-03-13T10:11:16.322Z,4.82
2024-03-13T10:13:44.888Z,5.60
2024-03-13T10:16:11.811Z,6.38
2024-03-13T10:18:42.954Z,6.10
2024-03-13T10:21:14.734Z,5.63
2024-03-13T10:23:44.134Z,4.28
2024-03-13T10:26:11.219Z,3.42
2024-03-13T10:28:39.207Z,5.85
2024-03-13T10:31:06.033Z,3.63
2024-03-13T10:33:32.905Z,3.60
2024-03-13T10:35:59.715Z,4.50
2024-03-13T10:38:26.820Z,4.30
2024-03-13T10:40:53.421Z,5.57
2024-03-13T10:43:20.250Z,4.22
2024-03-13T10:45:49.026Z,6.78
2024-03-13T10:48:17.937Z,3.63
2024-03-13T10:50:45.470Z,4.90
2024-03-13T10:55:38.610Z,5.65
2024-03-13T10:58:05.320Z,5.90
2024-03-13T11:00:31.946Z,5.00
2024-03-13T11:02:59.248Z,6.38
2024-03-13T11:05:26.014Z,7.00
2024-03-13T11:07:53.894Z,6.00
2024-03-13T11:10:23.626Z,5.85
2024-03-13T11:12:53.372Z,7.53
2024-03-13T11:15:24.754Z,7.35
2024-03-13T11:17:55.151Z,8.18
2024-03-13T11:20:22.474Z,6.75
2024-03-13T11:22:56.803Z,7.03
2024-03-13T11:25:23.924Z,6.30
2024-03-13T11:27:55.951Z,6.82
2024-03-13T11:30:22.611Z,5.60
2024-03-13T11:32:51.975Z,6.80
2024-03-13T11:35:19.319Z,5.75
2024-03-13T11:37:46.436Z,7.45
2024-03-13T11:40:13.426Z,5.22
2024-03-13T11:42:41.440Z,4.45
2024-03-13T11:45:11.234Z,5.78
2024-03-13T11:47:42.648Z,5.72
2024-03-13T11:50:09.962Z,4.30
2024-03-13T11:52:38.259Z,4.32
2024-03-13T11:55:22.137Z,5.13
2024-03-13T11:57:48.591Z,6.20
2024-03-13T12:00:22.272Z,4.13
2024-03-13T12:02:48.928Z,5.18
2024-03-13T12:05:31.748Z,6.50
2024-03-13T12:08:00.876Z,3.55
2024-03-13T12:10:28.816Z,4.80
2024-03-13T12:12:55.469Z,5.50
2024-03-13T12:15:22.723Z,3.60
2024-03-13T12:20:20.834Z,2.95
2024-03-13T12:22:48.468Z,6.95
2024-03-13T12:25:15.004Z,5.40
2024-03-13T12:27:45.325Z,4.35
2024-03-13T12:30:12.012Z,4.85
2024-03-13T12:32:38.619Z,2.78
2024-03-13T12:35:11.149Z,3.50
2024-03-13T12:37:37.877Z,3.92
2024-03-13T12:40:13.675Z,4.32
2024-03-13T12:42:43.354Z,3.95
2024-03-13T12:45:12.674Z,3.40
2024-03-13T12:47:39.852Z,6.00
2024-03-13T12:50:17.567Z,3.90
2024-03-13T12:52:46.559Z,2.50
2024-03-13T12:55:14.068Z,2.03
2024-03-13T12:57:40.640Z,3.03
2024-03-13T13:00:15.468Z,3.78
2024-03-13T13:02:45.203Z,3.05
2024-03-13T13:05:12.064Z,3.80
2024-03-13T13:07:49.663Z,4.82
2024-03-13T13:10:16.380Z,4.90
2024-03-13T13:12:42.860Z,8.68
2024-03-13T13:15:13.989Z,3.75
2024-03-13T13:17:44.528Z,2.85
2024-03-13T13:20:14.978Z,5.15
2024-03-13T13:22:42.475Z,6.57
2024-03-13T13:25:09.846Z,3.30
2024-03-13T13:27:36.732Z,4.32
2024-03-13T13:30:04.534Z,6.88
2024-03-13T13:32:31.019Z,4.13
2024-03-13T13:34:57.462Z,6.82
2024-03-13T13:37:23.960Z,2.25
2024-03-13T13:39:50.484Z,2.78
2024-03-13T13:42:17.428Z,3.50
2024-03-13T13:44:44.112Z,2.25
2024-03-13T13:47:11.479Z,5.43
2024-03-13T13:49:43.973Z,4.72
2024-03-13T13:52:10.438Z,3.15
2024-03-13T13:54:36.909Z,4.30
2024-03-13T13:57:03.586Z,4.57
2024-03-13T13:59:30.561Z,3.90
2024-03-13T14:01:56.993Z,4.63
2024-03-13T14:04:23.480Z,4.32
2024-03-13T14:06:50.000Z,4.97
2024-03-13T14:09:17.394Z,4.97
2024-03-13T14:11:44.282Z,4.82
2024-03-13T14:14:11.182Z,3.67
2024-03-13T14:16:37.910Z,5.32
2024-03-13T14:19:04.750Z,4.80
2024-03-13T14:21:31.459Z,7.05
2024-03-13T14:24:00.773Z,4.25
2024-03-13T14:26:27.700Z,4.32
2024-03-13T14:28:54.158Z,4.60
2024-03-13T14:31:20.587Z,6.47
2024-03-13T14:33:47.098Z,5.30
2024-03-13T14:36:13.759Z,6.78
2024-03-13T14:38:42.836Z,5.78
2024-03-13T14:41:13.987Z,2.47
2024-03-13T14:43:43.025Z,4.55
2024-03-13T14:46:10.337Z,4.30
2024-03-13T14:48:37.417Z,4.15
2024-03-13T14:51:04.099Z,5.10
2024-03-13T14:53:31.821Z,3.58
2024-03-13T14:55:58.331Z,4.30
2024-03-13T14:58:24.748Z,3.17
2024-03-13T15:00:51.186Z,4.35
2024-03-13T15:03:18.257Z,4.75
2024-03-13T15:05:44.823Z,4.20
2024-03-13T15:08:11.423Z,4.05
2024-03-13T15:10:38.532Z,3.40
2024-03-13T15:13:06.386Z,4.60
2024-03-13T15:15:33.005Z,3.42
2024-03-13T15:17:59.632Z,5.32
2024-03-13T15:20:26.302Z,4.25
2024-03-13T15:22:52.872Z,3.55
2024-03-13T15:25:19.304Z,4.07
2024-03-13T15:27:45.855Z,3.97
2024-03-13T15:30:15.724Z,4.15
2024-03-13T15:32:43.772Z,3.78
2024-03-13T15:35:10.593Z,3.15
2024-03-13T15:37:37.311Z,3.45
2024-03-13T15:40:12.178Z,4.28
2024-03-13T15:42:39.646Z,3.25
2024-03-13T15:45:06.267Z,2.08
2024-03-13T15:47:32.842Z,3.92
2024-03-13T15:49:59.646Z,3.17
2024-03-13T15:52:26.080Z,2.90
2024-03-13T15:54:52.576Z,4.32
2024-03-13T15:57:19.793Z,5.00
2024-03-13T15:59:46.411Z,3.03
2024-03-13T16:02:13.761Z,2.75
2024-03-13T16:04:40.228Z,5.70
2024-03-13T16:07:06.676Z,2.55
2024-03-13T16:09:34.040Z,2.28
2024-03-13T16:12:04.005Z,2.22
2024-03-13T16:14:31.572Z,4.13
2024-03-13T16:17:00.979Z,6.80
2024-03-13T16:19:27.434Z,1.85
2024-03-13T16:21:53.940Z,3.53
2024-03-13T16:24:20.642Z,3.70
2024-03-13T16:26:48.108Z,1.77
2024-03-13T16:29:14.580Z,4.35
2024-03-13T16:31:41.340Z,2.90
2024-03-13T16:34:08.674Z,4.03
2024-03-13T16:36:35.349Z,3.28
2024-03-13T16:39:02.836Z,2.95
2024-03-13T16:41:29.396Z,3.35
2024-03-13T16:43:55.863Z,2.83
2024-03-13T16:46:22.273Z,2.90
2024-03-13T16:48:48.846Z,2.55
2024-03-13T16:51:15.449Z,8.95
2024-03-13T16:53:42.002Z,12.40
2024-03-13T16:56:10.559Z,13.48
2024-03-13T16:58:37.089Z,13.10
2024-03-13T17:01:05.195Z,13.65
2024-03-13T17:03:31.990Z,13.65
2024-03-13T17:05:58.460Z,12.32
2024-03-13T17:08:24.969Z,12.70
2024-03-13T17:10:51.546Z,12.95
2024-03-13T17:13:18.090Z,12.85
2024-03-13T17:15:44.943Z,12.55
2024-03-13T17:18:17.064Z,12.55
2024-03-13T17:20:45.814Z,11.77
2024-03-13T17:23:12.773Z,13.18
2024-03-13T17:25:39.428Z,12.45
2024-03-13T17:28:07.198Z,12.23
2024-03-13T17:30:34.051Z,11.13
2024-03-13T17:33:01.222Z,12.27
2024-03-13T17:37:54.668Z,10.57
2024-03-13T17:40:21.483Z,10.70
2024-03-13T17:42:48.358Z,10.63
2024-03-13T17:45:16.519Z,12.50
2024-03-13T17:47:44.777Z,9.98
2024-03-13T17:50:11.592Z,10.00
2024-03-13T17:52:38.266Z,11.07
2024-03-13T17:55:04.947Z,9.27
2024-03-13T17:57:34.169Z,9.60
2024-03-13T18:00:01.507Z,10.07
2024-03-13T18:02:36.037Z,7.90
2024-03-13T18:05:02.567Z,10.73
2024-03-13T18:07:29.102Z,9.27
2024-03-13T18:09:56.289Z,10.13
2024-03-13T18:12:24.290Z,8.68
2024-03-13T18:14:53.539Z,8.98
2024-03-13T18:17:20.198Z,9.07
2024-03-13T18:19:46.815Z,9.52
2024-03-13T18:22:15.355Z,8.32
2024-03-13T18:24:41.878Z,11.05
2024-03-13T18:27:09.298Z,9.65
2024-03-13T18:29:36.109Z,9.45
2024-03-13T18:32:04.815Z,8.52
2024-03-13T18:34:34.284Z,9.20
2024-03-13T18:37:01.011Z,8.82
2024-03-13T18:39:27.856Z,9.30
2024-03-13T18:41:54.547Z,7.40
2024-03-13T18:44:25.411Z,8.00
2024-03-13T18:46:52.276Z,8.80
2024-03-13T18:49:18.797Z,7.75
2024-03-13T18:51:45.389Z,8.32
2024-03-13T18:54:11.937Z,7.22
2024-03-13T18:56:38.378Z,7.80
2024-03-13T18:59:05.596Z,8.48
2024-03-13T19:01:33.572Z,7.40
2024-03-13T19:04:00.251Z,7.32
2024-03-13T19:06:26.908Z,5.75
2024-03-13T19:08:53.670Z,7.93
2024-03-13T19:11:20.203Z,8.60
2024-03-13T19:13:46.763Z,7.18
2024-03-13T19:16:13.216Z,6.18
2024-03-13T19:18:40.104Z,8.20
2024-03-13T19:21:06.764Z,6.97
2024-03-13T19:23:33.404Z,5.75
2024-03-13T19:26:02.133Z,6.63
2024-03-13T19:28:29.209Z,6.85
2024-03-13T19:30:56.859Z,5.88
2024-03-13T19:33:23.850Z,6.55
2024-03-13T19:35:50.785Z,6.13
2024-03-13T19:38:17.309Z,6.47
2024-03-13T19:40:44.707Z,6.60
2024-03-13T19:43:11.305Z,5.63
2024-03-13T19:45:37.841Z,5.95
2024-03-13T19:48:06.231Z,5.88
2024-03-13T19:50:33.303Z,5.43
2024-03-13T19:53:00.127Z,5.32
2024-03-13T19:55:26.625Z,6.10
2024-03-13T19:57:53.228Z,7.57
2024-03-13T20:00:20.910Z,5.65
2024-03-13T20:02:47.664Z,6.32
2024-03-13T20:05:14.977Z,6.35
2024-03-13T20:10:12.620Z,5.82
2024-03-13T20:12:40.697Z,5.72
2024-03-13T20:15:07.505Z,5.78
2024-03-13T20:17:34.394Z,5.38
2024-03-13T20:20:01.331Z,4.68
2024-03-13T20:22:27.794Z,4.90
2024-03-13T20:24:54.665Z,5.03
2024-03-13T20:27:23.261Z,6.15
2024-03-13T20:29:50.080Z,5.38
2024-03-13T20:32:16.659Z,5.13
2024-03-13T20:34:43.190Z,4.68
2024-03-13T20:37:11.476Z,4.47
2024-03-13T20:39:38.127Z,5.55
2024-03-13T20:42:04.747Z,5.00
2024-03-13T20:44:31.656Z,4.55
2024-03-13T20:46:58.179Z,5.60
2024-03-13T20:49:24.755Z,5.57
2024-03-13T20:51:51.314Z,5.32
2024-03-13T20:54:17.796Z,5.38
2024-03-13T20:56:44.596Z,5.38
2024-03-13T20:59:13.643Z,5.40
2024-03-13T21:01:40.245Z,5.28
2024-03-13T21:04:06.755Z,5.32
2024-03-13T21:06:33.365Z,5.00
2024-03-13T21:09:00.401Z,5.25
2024-03-13T21:11:27.812Z,5.88
2024-03-13T21:13:56.259Z,4.68
2024-03-13T21:16:23.209Z,4.20
2024-03-13T21:18:49.817Z,4.22
2024-03-13T21:21:22.371Z,6.25
2024-03-13T21:23:53.528Z,3.75
2024-03-13T21:26:20.262Z,3.58
2024-03-13T21:28:47.664Z,4.05
2024-03-13T21:31:14.498Z,4.70
2024-03-13T21:33:42.108Z,4.80
2024-03-13T21:36:08.745Z,3.50
2024-03-13T21:38:37.438Z,4.72
2024-03-13T21:41:08.962Z,4.03
2024-03-13T21:43:36.144Z,4.45
2024-03-13T21:46:03.036Z,4.22
2024-03-13T21:48:29.822Z,4.78
2024-03-13T21:50:56.527Z,3.90
2024-03-13T21:53:23.457Z,4.82
2024-03-13T21:55:50.577Z,4.72
2024-03-13T21:58:17.062Z,9.68
2024-03-13T22:00:44.868Z,9.32
2024-03-13T22:03:14.334Z,6.53
2024-03-13T22:05:43.694Z,4.05
2024-03-13T22:08:10.322Z,5.85
2024-03-13T22:10:39.930Z,5.82
2024-03-13T22:13:06.506Z,9.02
2024-03-13T22:15:33.048Z,4.25
2024-03-13T22:17:59.686Z,7.55
2024-03-13T22:20:26.280Z,12.25
2024-03-13T22:22:52.820Z,9.68
2024-03-13T22:25:20.149Z,6.75
2024-03-13T22:27:46.737Z,9.35
2024-03-13T22:30:13.430Z,6.93
2024-03-13T22:32:39.973Z,6.20
2024-03-13T22:35:09.902Z,10.73
2024-03-13T22:37:37.029Z,7.97
2024-03-13T22:40:07.924Z,6.60
2024-03-13T22:42:35.906Z,6.18
2024-03-13T22:45:02.849Z,8.05
2024-03-13T22:47:29.458Z,7.10
2024-03-13T22:49:55.930Z,6.28
2024-03-13T22:52:22.442Z,5.07
2024-03-13T22:54:49.897Z,5.88
2024-03-13T22:59:43.249Z,9.35
2024-03-13T23:02:09.727Z,8.05
2024-03-13T23:04:36.254Z,6.43
2024-03-13T23:07:04.771Z,6.72
2024-03-13T23:09:34.215Z,5.40
2024-03-13T23:12:00.801Z,8.75
2024-03-13T23:14:27.326Z,12.75
2024-03-13T23:16:53.856Z,11.02
2024-03-13T23:19:20.986Z,9.25
2024-03-13T23:21:48.893Z,7.80
2024-03-13T23:24:15.413Z,5.82
2024-03-13T23:26:41.870Z,4.93
2024-03-13T23:29:08.470Z,6.53
2024-03-13T23:31:35.073Z,4.35
2024-03-13T23:34:01.669Z,6.55
2024-03-13T23:36:28.394Z,5.85
2024-03-13T23:38:58.127Z,8.27
2024-03-13T23:41:26.018Z,6.28
2024-03-13T23:43:52.492Z,6.15
2024-03-13T23:46:18.969Z,5.72
2024-03-13T23:48:46.507Z,6.00
2024-03-13T23:51:15.834Z,4.70
2024-03-13T23:53:42.505Z,7.30
2024-03-13T23:56:11.152Z,6.13
2024-03-13T23:58:37.614Z,6.85
